Terminal Aerodrome Forecast
Issued by NWS Wakefield, VA

Home | Current Version | Previous Version | Text Only | Print | Product List | Glossary On
Versions: 1 2 3 4 5 6 7 8 9 10 11 12 13 14 15 16
424
FTUS41 KAKQ 211728
TAFECG
TAF
KECG 211728Z 2118/2218 07005KT P6SM SKC
     FM220500 00000KT 3SM BR SCT004
     FM220700 00000KT 1SM BR BKN003
     FM221200 08005KT P6SM SCT250=

USA.gov is the U.S. government's official web portal to all federal, state and local government web resources and services.